Time;durP1;ratioP1;P1;durP2;ratioP2;P2;SDS_P1;SDS_P2;PMS_P1;PMS_P2;Temp;Humidity;BMP_temperature;BMP_pressure;BME280_temperature;BME280_humidity;BME280_pressure;Samples;Min_cycle;Max_cycle;Signal;HPM_P1;HPM_P2
2022/05/26 00:01:05;;;;;;;8.05;3.35;;;;;;;;;;6131401;23;20006;-83
2022/05/26 00:03:42;;;;;;;5.97;2.47;;;;;;;;;;6131981;23;20002;-83
2022/05/26 00:06:09;;;;;;;5.22;2.65;;;;;;;;;;6131671;23;20009;-83
2022/05/26 00:08:39;;;;;;;7.40;2.40;;;;;;;;;;6131475;23;20002;-84
2022/05/26 00:11:07;;;;;;;4.90;2.65;;;;;;;;;;6131788;23;20005;-82
2022/05/26 00:13:35;;;;;;;3.30;2.40;;;;;;;;;;6131793;23;20006;-83
2022/05/26 00:16:01;;;;;;;8.00;4.20;;;;;;;;;;6131780;23;20379;-83
2022/05/26 00:18:27;;;;;;;4.18;2.53;;;;;;;;;;6131877;23;20002;-85
2022/05/26 00:20:53;;;;;;;6.38;2.33;;;;;;;;;;6131194;23;20021;-85
2022/05/26 00:23:20;;;;;;;6.50;2.25;;;;;;;;;;6131510;23;20005;-84
2022/05/26 00:25:46;;;;;;;6.47;2.33;;;;;;;;;;6131526;23;20432;-85
2022/05/26 00:28:13;;;;;;;3.97;2.20;;;;;;;;;;6131592;23;20427;-84
2022/05/26 00:30:39;;;;;;;5.18;2.28;;;;;;;;;;6131005;23;20399;-84
2022/05/26 00:33:07;;;;;;;5.57;2.30;;;;;;;;;;6131675;23;20024;-84
2022/05/26 00:35:34;;;;;;;6.88;2.08;;;;;;;;;;6131458;23;20060;-84
2022/05/26 00:38:05;;;;;;;5.25;2.00;;;;;;;;;;6131219;23;20090;-83
2022/05/26 00:40:32;;;;;;;7.65;2.38;;;;;;;;;;6131196;23;20072;-83
2022/05/26 00:42:58;;;;;;;4.75;2.03;;;;;;;;;;6131003;23;20009;-83
2022/05/26 00:45:28;;;;;;;4.68;2.15;;;;;;;;;;6157368;23;19997;-83
2022/05/26 00:47:54;;;;;;;3.05;2.13;;;;;;;;;;6157411;23;20029;-83
2022/05/26 00:50:23;;;;;;;7.65;2.17;;;;;;;;;;6131148;23;20081;-85
2022/05/26 00:52:55;;;;;;;3.85;2.00;;;;;;;;;;6131595;23;20431;-83
2022/05/26 00:55:30;;;;;;;4.30;2.70;;;;;;;;;;6131312;23;20435;-83
2022/05/26 00:58:07;;;;;;;3.50;2.50;;;;;;;;;;6131077;23;20020;-83
2022/05/26 01:00:35;;;;;;;7.60;2.65;;;;;;;;;;6131000;23;20516;-83
2022/05/26 01:03:11;;;;;;;8.95;2.90;;;;;;;;;;6131252;23;20005;-84
2022/05/26 01:05:40;;;;;;;6.57;3.10;;;;;;;;;;6157117;23;20493;-82
2022/05/26 01:08:08;;;;;;;6.18;2.85;;;;;;;;;;6131113;23;20449;-83
2022/05/26 01:10:35;;;;;;;6.03;2.95;;;;;;;;;;6131373;23;20069;-83
2022/05/26 01:13:01;;;;;;;7.13;2.90;;;;;;;;;;6157344;23;20073;-81
2022/05/26 01:15:32;;;;;;;2.67;1.77;;;;;;;;;;6131051;23;20443;-83
2022/05/26 01:18:01;;;;;;;4.15;2.20;;;;;;;;;;6130791;23;20405;-82
2022/05/26 01:20:40;;;;;;;6.80;2.03;;;;;;;;;;6130746;23;20053;-83
2022/05/26 01:23:24;;;;;;;4.65;2.25;;;;;;;;;;6131368;23;20013;-83
2022/05/26 01:26:08;;;;;;;5.85;2.08;;;;;;;;;;6162231;23;20006;-88
2022/05/26 01:28:53;;;;;;;6.45;1.88;;;;;;;;;;6157151;23;20043;-84
2022/05/26 01:31:31;;;;;;;3.85;1.90;;;;;;;;;;6131253;23;20009;-84
2022/05/26 01:34:04;;;;;;;3.55;2.05;;;;;;;;;;6131048;23;20010;-84
2022/05/26 01:36:30;;;;;;;2.47;1.67;;;;;;;;;;6130988;23;20098;-85
2022/05/26 01:39:35;;;;;;;3.83;1.73;;;;;;;;;;6131040;23;20100;-84
2022/05/26 01:42:10;;;;;;;3.15;1.80;;;;;;;;;;6010254;23;20086;-85
2022/05/26 01:44:55;;;;;;;9.43;1.73;;;;;;;;;;6010267;23;20007;-85
2022/05/26 01:47:39;;;;;;;3.22;1.77;;;;;;;;;;6082082;23;20064;-85
2022/05/26 01:50:05;;;;;;;3.03;1.88;;;;;;;;;;6130671;23;20305;-85
2022/05/26 01:52:35;;;;;;;2.70;1.63;;;;;;;;;;6131024;23;20010;-85
2022/05/26 01:55:17;;;;;;;3.63;1.90;;;;;;;;;;6130958;23;20002;-85
2022/05/26 01:57:44;;;;;;;5.45;1.88;;;;;;;;;;6131126;23;20013;-85
2022/05/26 02:00:13;;;;;;;2.15;1.80;;;;;;;;;;6157016;23;20006;-85
2022/05/26 02:02:41;;;;;;;5.20;2.42;;;;;;;;;;6131985;23;20013;-85
2022/05/26 02:05:18;;;;;;;2.35;2.00;;;;;;;;;;6130981;23;20002;-85
2022/05/26 02:08:04;;;;;;;6.95;2.53;;;;;;;;;;6130988;23;20005;-85
2022/05/26 02:10:36;;;;;;;8.02;2.42;;;;;;;;;;6130815;23;20012;-85
2022/05/26 02:13:05;;;;;;;4.32;2.35;;;;;;;;;;6131039;23;20454;-85
2022/05/26 02:15:34;;;;;;;5.40;2.50;;;;;;;;;;6130506;23;20064;-85
2022/05/26 02:18:06;;;;;;;4.97;3.05;;;;;;;;;;6131366;23;20002;-85
2022/05/26 02:20:36;;;;;;;4.32;3.28;;;;;;;;;;6130464;23;20017;-84
2022/05/26 02:23:09;;;;;;;7.53;6.30;;;;;;;;;;6130747;23;20435;-85
2022/05/26 02:25:35;;;;;;;12.60;11.40;;;;;;;;;;6130575;23;20367;-84
2022/05/26 02:28:02;;;;;;;17.05;15.50;;;;;;;;;;6131107;23;20017;-85
2022/05/26 02:30:37;;;;;;;18.40;16.80;;;;;;;;;;6156847;23;20375;-85
2022/05/26 02:33:06;;;;;;;17.83;16.05;;;;;;;;;;6130471;23;20010;-85
2022/05/26 02:35:33;;;;;;;11.52;10.43;;;;;;;;;;6130553;23;20032;-85
2022/05/26 02:38:04;;;;;;;9.40;8.55;;;;;;;;;;6131051;23;20457;-86
2022/05/26 02:40:32;;;;;;;11.10;8.40;;;;;;;;;;6130683;23;20431;-85
2022/05/26 02:43:05;;;;;;;9.95;9.00;;;;;;;;;;6157006;23;20077;-85
2022/05/26 02:45:50;;;;;;;9.93;8.88;;;;;;;;;;6130624;23;20439;-86
2022/05/26 02:48:27;;;;;;;7.10;6.30;;;;;;;;;;6130599;23;20092;-84
2022/05/26 02:51:02;;;;;;;9.15;6.10;;;;;;;;;;6156725;23;20075;-86
2022/05/26 02:53:32;;;;;;;7.45;5.25;;;;;;;;;;6156902;23;20005;-85
2022/05/26 02:56:27;;;;;;;7.30;4.90;;;;;;;;;;6130251;23;20005;-83
2022/05/26 02:59:11;;;;;;;8.80;4.40;;;;;;;;;;6004131;23;20008;-85
2022/05/26 03:01:37;;;;;;;;;;;;;;;;;;6157057;23;20029;-87
2022/05/26 03:04:21;;;;;;;4.35;3.20;;;;;;;;;;6156780;23;19932;-84
2022/05/26 03:06:47;;;;;;;;;;;;;;;;;;6130794;23;20528;-85
2022/05/26 03:09:13;;;;;;;6.45;2.70;;;;;;;;;;6130406;23;19907;-84
2022/05/26 03:11:47;;;;;;;4.07;2.92;;;;;;;;;;6130173;23;20084;-85
2022/05/26 03:14:14;;;;;;;6.18;2.50;;;;;;;;;;6130567;23;20005;-85
2022/05/26 03:16:41;;;;;;;6.47;3.13;;;;;;;;;;6130390;23;20017;-85
2022/05/26 03:19:07;;;;;;;3.38;2.95;;;;;;;;;;6131384;23;20012;-83
2022/05/26 03:21:33;;;;;;;4.10;2.70;;;;;;;;;;6130292;23;20048;-85
2022/05/26 03:24:00;;;;;;;5.70;2.75;;;;;;;;;;6156531;23;19998;-85
2022/05/26 03:26:26;;;;;;;4.65;2.80;;;;;;;;;;6131152;23;20010;-85
2022/05/26 03:28:52;;;;;;;4.35;3.22;;;;;;;;;;6159185;23;20378;-86
2022/05/26 03:31:18;;;;;;;11.98;5.38;;;;;;;;;;6132029;23;20493;-85
2022/05/26 03:41:58;;;;;;;4.75;4.32;;;;;;;;;;6158320;23;20117;-85
2022/05/26 03:44:25;;;;;;;5.05;3.67;;;;;;;;;;6132566;23;20085;-84
2022/05/26 03:46:51;;;;;;;6.40;4.70;;;;;;;;;;6132023;23;20085;-85
2022/05/26 03:49:17;;;;;;;4.78;4.38;;;;;;;;;;6132319;23;20016;-85
2022/05/26 03:51:44;;;;;;;5.10;3.80;;;;;;;;;;6132002;23;20012;-85
2022/05/26 03:54:10;;;;;;;4.15;3.28;;;;;;;;;;6158146;23;20001;-85
2022/05/26 03:56:36;;;;;;;4.25;3.28;;;;;;;;;;6158225;23;20017;-86
2022/05/26 03:59:02;;;;;;;8.75;5.30;;;;;;;;;;6132222;23;20083;-85
2022/05/26 04:01:29;;;;;;;9.88;5.30;;;;;;;;;;6131794;23;20348;-85
2022/05/26 04:03:55;;;;;;;9.25;5.97;;;;;;;;;;6132476;23;20009;-84
2022/05/26 04:06:21;;;;;;;5.38;4.47;;;;;;;;;;6132137;23;20089;-86
2022/05/26 04:08:48;;;;;;;5.13;4.63;;;;;;;;;;6158021;23;20044;-85
2022/05/26 04:11:14;;;;;;;6.43;5.72;;;;;;;;;;6131458;23;20009;-83
2022/05/26 04:13:41;;;;;;;6.80;4.45;;;;;;;;;;6157533;23;20075;-85
2022/05/26 04:16:16;;;;;;;7.03;4.72;;;;;;;;;;6131271;23;20018;-84
2022/05/26 04:18:42;;;;;;;8.07;5.30;;;;;;;;;;6134297;23;20009;-85
2022/05/26 04:21:10;;;;;;;6.18;3.80;;;;;;;;;;6131874;23;20025;-84
2022/05/26 04:23:36;;;;;;;6.95;3.70;;;;;;;;;;6132037;23;20021;-88
2022/05/26 04:26:20;;;;;;;7.65;6.85;;;;;;;;;;6133096;23;20005;-91
2022/05/26 04:28:46;;;;;;;;;;;;;;;;;;6133058;23;20005;-88
2022/05/26 04:31:17;;;;;;;6.47;3.90;;;;;;;;;;6134260;23;19908;-88
2022/05/26 04:33:46;;;;;;;5.40;3.53;;;;;;;;;;6131416;23;20453;-91
2022/05/26 04:36:12;;;;;;;5.90;3.20;;;;;;;;;;6131713;23;20028;-82
2022/05/26 04:38:39;;;;;;;3.10;2.60;;;;;;;;;;6130463;23;20379;-84
2022/05/26 04:41:07;;;;;;;6.35;4.53;;;;;;;;;;6130837;23;20010;-85
2022/05/26 04:43:33;;;;;;;8.65;4.28;;;;;;;;;;6131964;23;20006;-87
2022/05/26 04:46:02;;;;;;;5.18;3.05;;;;;;;;;;6131376;23;20005;-88
2022/05/26 04:48:28;;;;;;;8.52;4.25;;;;;;;;;;6131762;23;20009;-88
2022/05/26 04:50:54;;;;;;;8.02;3.30;;;;;;;;;;6131618;23;20037;-86
2022/05/26 04:53:21;;;;;;;5.78;2.95;;;;;;;;;;6131381;23;20036;-87
2022/05/26 04:55:57;;;;;;;10.45;3.22;;;;;;;;;;6131189;23;20331;-82
2022/05/26 04:58:24;;;;;;;4.05;2.50;;;;;;;;;;6160707;23;20412;-81
2022/05/26 05:00:54;;;;;;;5.70;3.33;;;;;;;;;;6156597;23;20033;-81
2022/05/26 05:03:20;;;;;;;5.55;2.58;;;;;;;;;;6133927;23;20040;-80
2022/05/26 05:05:47;;;;;;;5.95;2.80;;;;;;;;;;6156465;23;20006;-82
2022/05/26 05:08:13;;;;;;;4.25;1.55;;;;;;;;;;6131493;23;20005;-81
2022/05/26 05:10:39;;;;;;;2.42;1.23;;;;;;;;;;6130546;23;20009;-81
2022/05/26 05:13:06;;;;;;;1.90;1.40;;;;;;;;;;6130094;23;20013;-82
2022/05/26 05:15:35;;;;;;;2.83;1.50;;;;;;;;;;6130302;23;20486;-82
2022/05/26 05:18:01;;;;;;;5.45;1.65;;;;;;;;;;6130651;23;20405;-82
2022/05/26 05:20:27;;;;;;;2.22;1.10;;;;;;;;;;6156296;23;20075;-83
2022/05/26 05:22:57;;;;;;;2.15;1.02;;;;;;;;;;6130527;23;20391;-81
2022/05/26 05:25:26;;;;;;;2.45;1.13;;;;;;;;;;6130570;23;20006;-83
2022/05/26 05:27:55;;;;;;;4.05;1.27;;;;;;;;;;6131330;23;20010;-85
2022/05/26 05:30:29;;;;;;;2.30;1.02;;;;;;;;;;6131792;23;20020;-89
2022/05/26 05:33:15;;;;;;;5.25;1.40;;;;;;;;;;6132779;23;20012;-86
2022/05/26 05:35:47;;;;;;;2.85;1.25;;;;;;;;;;6129955;23;20006;-81
2022/05/26 05:38:14;;;;;;;2.30;1.30;;;;;;;;;;6156349;23;20012;-78
2022/05/26 05:40:40;;;;;;;3.60;1.13;;;;;;;;;;6130141;23;20053;-77
2022/05/26 05:43:06;;;;;;;4.43;1.55;;;;;;;;;;6156170;23;20006;-78
2022/05/26 05:45:32;;;;;;;3.90;1.20;;;;;;;;;;6156141;23;20008;-81
2022/05/26 05:47:58;;;;;;;4.93;1.30;;;;;;;;;;6130281;23;20100;-81
2022/05/26 05:50:25;;;;;;;3.60;1.70;;;;;;;;;;6155861;23;20327;-80
2022/05/26 05:52:51;;;;;;;1.90;0.90;;;;;;;;;;6130112;23;20001;-82
2022/05/26 05:55:18;;;;;;;2.35;0.98;;;;;;;;;;6156146;23;20031;-78
2022/05/26 05:57:44;;;;;;;1.33;0.80;;;;;;;;;;6129796;23;20355;-79
2022/05/26 06:00:10;;;;;;;3.55;1.20;;;;;;;;;;6156134;23;20412;-79
2022/05/26 06:02:36;;;;;;;5.05;1.58;;;;;;;;;;6130074;23;20084;-79
2022/05/26 06:05:03;;;;;;;3.05;1.20;;;;;;;;;;6129946;23;20028;-78
2022/05/26 06:07:29;;;;;;;3.45;1.00;;;;;;;;;;6155790;23;20009;-79
2022/05/26 06:09:55;;;;;;;3.03;1.17;;;;;;;;;;6156162;23;20493;-80
2022/05/26 06:12:22;;;;;;;1.75;0.98;;;;;;;;;;6129983;23;20025;-78
2022/05/26 06:14:49;;;;;;;2.58;0.75;;;;;;;;;;6156170;23;20005;-79
2022/05/26 06:17:15;;;;;;;2.17;0.90;;;;;;;;;;6155452;23;20018;-78
2022/05/26 06:19:42;;;;;;;2.95;0.95;;;;;;;;;;6129750;23;20088;-79
2022/05/26 06:22:10;;;;;;;2.58;1.17;;;;;;;;;;6129861;23;20334;-79
2022/05/26 06:24:39;;;;;;;2.28;1.00;;;;;;;;;;6156050;23;20024;-79
2022/05/26 06:29:49;;;;;;;6.28;1.10;;;;;;;;;;6155846;23;20415;-78
2022/05/26 06:29:52;;;;;;;4.00;1.05;;;;;;;;;;6155957;23;20005;-79
2022/05/26 06:37:52;;;;;;;2.88;0.90;;;;;;;;;;6155912;23;20457;-79
2022/05/26 06:40:18;;;;;;;2.63;1.00;;;;;;;;;;6129906;23;20006;-75
2022/05/26 06:42:45;;;;;;;3.15;1.00;;;;;;;;;;6129779;23;20011;-77
2022/05/26 06:45:14;;;;;;;3.28;1.00;;;;;;;;;;6155831;23;20001;-76
2022/05/26 06:47:40;;;;;;;2.40;0.90;;;;;;;;;;6155914;23;20064;-76
2022/05/26 06:50:07;;;;;;;2.20;0.80;;;;;;;;;;6155719;23;20002;-76
2022/05/26 06:52:33;;;;;;;4.22;1.00;;;;;;;;;;6155560;23;20006;-78
2022/05/26 06:54:59;;;;;;;1.92;0.85;;;;;;;;;;6155645;23;20002;-77
2022/05/26 06:57:25;;;;;;;4.72;1.15;;;;;;;;;;6155733;23;20013;-78
2022/05/26 06:59:51;;;;;;;3.78;0.90;;;;;;;;;;6155820;23;20002;-78
2022/05/26 07:02:18;;;;;;;3.35;0.90;;;;;;;;;;6158176;23;20326;-75
2022/05/26 07:04:44;;;;;;;4.75;0.90;;;;;;;;;;6159038;23;20029;-74
2022/05/26 07:07:13;;;;;;;2.22;0.80;;;;;;;;;;6158899;23;20013;-74
2022/05/26 07:09:39;;;;;;;3.78;0.88;;;;;;;;;;6132845;23;20088;-81
2022/05/26 07:12:05;;;;;;;6.18;0.90;;;;;;;;;;6158676;23;20002;-76
2022/05/26 07:14:31;;;;;;;2.78;0.70;;;;;;;;;;6132952;23;20028;-85
2022/05/26 07:16:57;;;;;;;1.63;0.68;;;;;;;;;;6133023;23;20037;-81
2022/05/26 07:19:24;;;;;;;4.03;0.77;;;;;;;;;;6158739;23;20420;-82
2022/05/26 07:21:50;;;;;;;3.03;0.82;;;;;;;;;;6132268;23;20010;-82
2022/05/26 07:24:19;;;;;;;3.28;0.60;;;;;;;;;;6132608;23;20010;-81
2022/05/26 07:26:45;;;;;;;2.05;0.70;;;;;;;;;;6132358;23;20021;-81
2022/05/26 07:29:12;;;;;;;2.72;0.60;;;;;;;;;;6132617;23;20033;-82
2022/05/26 07:31:38;;;;;;;3.92;0.70;;;;;;;;;;6132811;23;20005;-81
2022/05/26 07:34:04;;;;;;;1.38;0.70;;;;;;;;;;6132930;23;20012;-81
2022/05/26 07:42:06;;;;;;;3.20;0.82;;;;;;;;;;6118012;23;20326;-87
2022/05/26 07:44:35;;;;;;;4.40;0.80;;;;;;;;;;6159196;23;20453;-87
2022/05/26 07:47:01;;;;;;;2.20;0.70;;;;;;;;;;6132901;23;20006;-83
2022/05/26 07:49:27;;;;;;;1.42;0.70;;;;;;;;;;6133078;23;20033;-86
2022/05/26 07:51:53;;;;;;;1.92;0.60;;;;;;;;;;6132518;23;20386;-81
2022/05/26 07:54:19;;;;;;;1.92;0.70;;;;;;;;;;6159214;23;20001;-84
2022/05/26 07:56:46;;;;;;;2.33;0.80;;;;;;;;;;6158664;23;20017;-85
2022/05/26 07:59:12;;;;;;;3.53;0.70;;;;;;;;;;6132823;23;20005;-81
2022/05/26 08:01:38;;;;;;;2.58;0.80;;;;;;;;;;6132079;23;20010;-78
2022/05/26 08:04:07;;;;;;;2.88;0.80;;;;;;;;;;6133586;23;20005;-76
2022/05/26 08:06:33;;;;;;;3.42;0.70;;;;;;;;;;6132467;23;20016;-76
2022/05/26 08:08:59;;;;;;;1.73;0.70;;;;;;;;;;6132153;23;20057;-76
2022/05/26 08:11:25;;;;;;;2.63;0.80;;;;;;;;;;6132586;23;20466;-76
2022/05/26 08:13:51;;;;;;;2.45;0.70;;;;;;;;;;6130977;23;20013;-76
2022/05/26 08:16:17;;;;;;;1.48;0.55;;;;;;;;;;6130667;23;20017;-76
2022/05/26 08:18:44;;;;;;;2.47;0.68;;;;;;;;;;6157234;23;20089;-77
2022/05/26 08:21:11;;;;;;;4.72;0.90;;;;;;;;;;6130795;23;20025;-77
2022/05/26 08:23:38;;;;;;;1.83;0.70;;;;;;;;;;6130793;23;20435;-77
2022/05/26 08:26:04;;;;;;;1.92;0.70;;;;;;;;;;6131063;23;20442;-77
2022/05/26 08:28:31;;;;;;;1.33;0.47;;;;;;;;;;6157101;23;19998;-78
2022/05/26 08:30:57;;;;;;;3.55;0.55;;;;;;;;;;6130922;23;20033;-78
2022/05/26 08:33:23;;;;;;;2.58;0.45;;;;;;;;;;6156891;23;20319;-78
2022/05/26 08:35:49;;;;;;;2.97;0.68;;;;;;;;;;6156865;23;20092;-78
2022/05/26 08:38:15;;;;;;;1.55;0.57;;;;;;;;;;6156817;23;20072;-81
2022/05/26 08:40:44;;;;;;;2.67;0.50;;;;;;;;;;6130871;23;20009;-80
2022/05/26 08:43:17;;;;;;;1.45;0.50;;;;;;;;;;6156946;23;20077;-80
2022/05/26 08:45:48;;;;;;;4.80;0.55;;;;;;;;;;6130752;23;20012;-80
2022/05/26 08:48:18;;;;;;;3.28;0.35;;;;;;;;;;6130837;23;20005;-80
2022/05/26 08:50:44;;;;;;;2.80;0.70;;;;;;;;;;6130575;23;20429;-77
2022/05/26 08:53:21;;;;;;;3.65;0.50;;;;;;;;;;6156661;23;20002;-78
2022/05/26 08:55:49;;;;;;;3.00;0.50;;;;;;;;;;6130675;23;20454;-77
2022/05/26 08:58:17;;;;;;;4.22;0.52;;;;;;;;;;6130587;23;20089;-77
2022/05/26 09:00:44;;;;;;;1.23;0.40;;;;;;;;;;6130702;23;20432;-77
2022/05/26 09:03:29;;;;;;;3.53;0.50;;;;;;;;;;6130425;23;20494;-78
2022/05/26 09:05:59;;;;;;;4.05;0.52;;;;;;;;;;6130180;23;20373;-77
2022/05/26 09:14:00;;;;;;;1.02;0.22;;;;;;;;;;6126925;23;20105;-77
2022/05/26 09:16:32;;;;;;;1.42;0.30;;;;;;;;;;6126696;23;20010;-77
2022/05/26 09:19:08;;;;;;;1.73;0.50;;;;;;;;;;6126448;23;20002;-78
2022/05/26 09:21:36;;;;;;;2.15;0.40;;;;;;;;;;6101105;23;20021;-79
2022/05/26 09:24:39;;;;;;;3.78;0.43;;;;;;;;;;6126769;23;20432;-78
2022/05/26 09:27:22;;;;;;;1.65;0.30;;;;;;;;;;5985472;23;20003;-79
2022/05/26 09:29:49;;;;;;;4.43;0.47;;;;;;;;;;6093710;23;20017;-79
2022/05/26 09:32:16;;;;;;;5.18;0.60;;;;;;;;;;6127189;23;20081;-80
2022/05/26 09:34:42;;;;;;;2.03;0.40;;;;;;;;;;6100758;23;20009;-77
2022/05/26 09:37:09;;;;;;;2.10;0.50;;;;;;;;;;6126697;23;20026;-77
2022/05/26 09:39:38;;;;;;;1.42;0.40;;;;;;;;;;6100978;23;20425;-77
2022/05/26 09:42:06;;;;;;;2.33;0.38;;;;;;;;;;6101076;23;20306;-77
2022/05/26 09:44:35;;;;;;;5.22;1.25;;;;;;;;;;6126912;23;20002;-78
2022/05/26 09:47:11;;;;;;;2.85;0.60;;;;;;;;;;6100620;23;20443;-77
2022/05/26 09:49:41;;;;;;;3.08;0.43;;;;;;;;;;6126945;23;20033;-77
2022/05/26 09:52:31;;;;;;;1.80;0.30;;;;;;;;;;6126906;23;20033;-77
2022/05/26 09:55:09;;;;;;;1.45;0.40;;;;;;;;;;6108774;23;20005;-79
2022/05/26 09:57:36;;;;;;;1.50;0.47;;;;;;;;;;6100653;23;20014;-76
2022/05/26 10:00:05;;;;;;;4.00;0.43;;;;;;;;;;6126601;23;20078;-75
2022/05/26 10:02:40;;;;;;;1.50;0.50;;;;;;;;;;6100827;23;20009;-81
2022/05/26 10:05:25;;;;;;;2.15;0.40;;;;;;;;;;6126305;23;20002;-77
2022/05/26 10:07:51;;;;;;;2.65;0.40;;;;;;;;;;6126742;23;20002;-77
2022/05/26 10:10:20;;;;;;;1.42;0.50;;;;;;;;;;6126633;23;20450;-77
2022/05/26 10:12:46;;;;;;;5.63;1.10;;;;;;;;;;6126807;23;20017;-80
2022/05/26 10:15:12;;;;;;;3.67;0.50;;;;;;;;;;6126470;23;20002;-79
2022/05/26 10:17:39;;;;;;;1.73;0.50;;;;;;;;;;6100603;23;20036;-81
2022/05/26 10:20:26;;;;;;;2.80;0.38;;;;;;;;;;6100312;23;20014;-79
2022/05/26 10:22:55;;;;;;;2.38;0.50;;;;;;;;;;6100744;23;20367;-79
2022/05/26 10:25:31;;;;;;;2.85;0.50;;;;;;;;;;6126523;23;20036;-78
2022/05/26 10:28:06;;;;;;;2.00;0.50;;;;;;;;;;6100456;23;20339;-77
2022/05/26 10:30:42;;;;;;;3.13;0.52;;;;;;;;;;6100638;23;20450;-81
2022/05/26 10:33:08;;;;;;;2.08;0.30;;;;;;;;;;6100604;23;20001;-78
2022/05/26 10:35:34;;;;;;;4.97;0.40;;;;;;;;;;6126250;23;20013;-78
2022/05/26 10:38:00;;;;;;;1.80;0.40;;;;;;;;;;6126732;23;20009;-81
2022/05/26 10:40:38;;;;;;;5.45;0.60;;;;;;;;;;6100656;23;20006;-77
2022/05/26 10:43:30;;;;;;;3.50;0.50;;;;;;;;;;6126547;23;20006;-77
2022/05/26 10:45:58;;;;;;;4.23;0.60;;;;;;;;;;6094340;23;20045;-78
2022/05/26 10:48:33;;;;;;;3.63;0.65;;;;;;;;;;6100621;23;20041;-79
2022/05/26 10:51:22;;;;;;;2.47;0.52;;;;;;;;;;6100220;23;20013;-78
2022/05/26 10:53:54;;;;;;;1.48;0.52;;;;;;;;;;6100900;23;20010;-78
2022/05/26 10:56:32;;;;;;;3.60;0.65;;;;;;;;;;6126410;23;20010;-78
2022/05/26 10:59:07;;;;;;;3.42;0.60;;;;;;;;;;6100329;23;20009;-77
2022/05/26 11:01:35;;;;;;;4.70;0.50;;;;;;;;;;6100247;23;20038;-79
2022/05/26 11:04:13;;;;;;;5.75;0.70;;;;;;;;;;6100534;23;20034;-82
2022/05/26 11:06:41;;;;;;;1.15;0.50;;;;;;;;;;6100324;23;20085;-84
2022/05/26 11:09:07;;;;;;;3.47;0.60;;;;;;;;;;6100243;23;20013;-83
2022/05/26 11:11:38;;;;;;;4.72;0.80;;;;;;;;;;6103206;23;20081;-81
2022/05/26 11:17:24;;;;;;;2.38;0.50;;;;;;;;;;6125601;23;20053;-78
2022/05/26 11:19:59;;;;;;;1.15;0.40;;;;;;;;;;6126310;23;20038;-85
2022/05/26 11:22:25;;;;;;;5.05;0.68;;;;;;;;;;6100544;23;20368;-84
2022/05/26 11:24:52;;;;;;;2.72;0.63;;;;;;;;;;6100476;23;20009;-83
2022/05/26 11:27:34;;;;;;;1.85;0.60;;;;;;;;;;6125288;23;20002;-81
2022/05/26 11:30:02;;;;;;;4.15;0.65;;;;;;;;;;6126124;23;20002;-79
2022/05/26 11:38:15;;;;;;;2.67;0.70;;;;;;;;;;6126107;23;20037;-78
2022/05/26 11:40:46;;;;;;;5.25;0.70;;;;;;;;;;6126229;23;19998;-78
2022/05/26 11:43:23;;;;;;;7.78;2.80;;;;;;;;;;6126084;23;20002;-83
2022/05/26 11:45:51;;;;;;;17.80;8.80;;;;;;;;;;6125842;23;20010;-84
2022/05/26 11:48:33;;;;;;;11.98;5.07;;;;;;;;;;6100800;23;20085;-85
2022/05/26 11:51:00;;;;;;;4.07;1.67;;;;;;;;;;6102114;23;20014;-82
2022/05/26 11:53:45;;;;;;;26.38;13.57;;;;;;;;;;6102103;23;20032;-84
2022/05/26 11:56:28;;;;;;;42.13;19.95;;;;;;;;;;6126752;23;20014;-78
2022/05/26 11:59:13;;;;;;;14.10;4.75;;;;;;;;;;6125888;23;20013;-76
2022/05/26 12:01:39;;;;;;;3.63;0.98;;;;;;;;;;6101891;23;20014;-82
2022/05/26 12:04:17;;;;;;;8.02;3.40;;;;;;;;;;6102006;23;20002;-84
2022/05/26 12:06:53;;;;;;;15.30;4.30;;;;;;;;;;6102077;23;20467;-82
2022/05/26 12:09:19;;;;;;;7.53;1.13;;;;;;;;;;6101702;23;20037;-83
2022/05/26 12:11:55;;;;;;;3.25;0.70;;;;;;;;;;6127527;23;20026;-84
2022/05/26 12:14:22;;;;;;;35.55;14.50;;;;;;;;;;6101915;23;20030;-83
2022/05/26 12:16:50;;;;;;;11.98;5.22;;;;;;;;;;6126336;23;20029;-83
2022/05/26 12:19:36;;;;;;;5.45;1.60;;;;;;;;;;6127790;23;20065;-83
2022/05/26 12:22:14;;;;;;;45.60;21.40;;;;;;;;;;6101338;23;20012;-83
2022/05/26 12:24:49;;;;;;;4.40;1.40;;;;;;;;;;6126194;23;20061;-82
2022/05/26 12:27:15;;;;;;;3.67;0.70;;;;;;;;;;6100979;23;20037;-80
2022/05/26 12:30:01;;;;;;;1.90;0.80;;;;;;;;;;6101286;23;20020;-81
2022/05/26 12:32:38;;;;;;;1.92;0.80;;;;;;;;;;6100920;23;20013;-78
2022/05/26 12:35:07;;;;;;;2.05;0.70;;;;;;;;;;6127524;23;20013;-78
2022/05/26 12:37:33;;;;;;;1.50;0.65;;;;;;;;;;6101258;23;20096;-81
2022/05/26 12:40:03;;;;;;;2.15;0.80;;;;;;;;;;6101711;23;20422;-78
2022/05/26 12:42:41;;;;;;;1.73;0.70;;;;;;;;;;6101259;23;20503;-78
2022/05/26 12:45:16;;;;;;;3.28;0.90;;;;;;;;;;6101631;23;20013;-78
2022/05/26 12:47:54;;;;;;;4.50;0.60;;;;;;;;;;6101693;23;20001;-81
2022/05/26 12:50:22;;;;;;;2.63;0.75;;;;;;;;;;6127718;23;20002;-78
2022/05/26 12:52:48;;;;;;;4.22;0.95;;;;;;;;;;6101450;23;20069;-77
2022/05/26 12:55:20;;;;;;;3.33;0.68;;;;;;;;;;6101365;23;20385;-79
2022/05/26 12:57:50;;;;;;;3.42;0.80;;;;;;;;;;6127233;23;20092;-78
2022/05/26 13:00:24;;;;;;;2.70;0.80;;;;;;;;;;6101213;23;20033;-79
2022/05/26 13:02:54;;;;;;;2.05;0.90;;;;;;;;;;6101205;23;20100;-79
2022/05/26 13:05:21;;;;;;;3.47;0.77;;;;;;;;;;6101453;23;20002;-83
2022/05/26 13:07:50;;;;;;;7.90;1.33;;;;;;;;;;6127240;23;20052;-82
2022/05/26 13:10:16;;;;;;;3.28;0.80;;;;;;;;;;6101292;23;20076;-80
2022/05/26 13:12:46;;;;;;;1.98;0.70;;;;;;;;;;6101329;23;20009;-79
2022/05/26 13:15:20;;;;;;;5.85;0.90;;;;;;;;;;6100922;23;20002;-82
2022/05/26 13:17:50;;;;;;;9.30;1.30;;;;;;;;;;6101506;23;20022;-76
2022/05/26 13:20:25;;;;;;;5.50;0.80;;;;;;;;;;6101113;23;20076;-76
2022/05/26 13:22:51;;;;;;;20.20;1.52;;;;;;;;;;6101366;23;20005;-80
2022/05/26 13:25:24;;;;;;;6.50;0.80;;;;;;;;;;6100985;23;20428;-76
2022/05/26 13:27:52;;;;;;;22.50;1.27;;;;;;;;;;6101213;23;20085;-76
2022/05/26 13:33:09;;;;;;;14.57;1.40;;;;;;;;;;6127360;23;20141;-83
2022/05/26 13:36:01;;;;;;;11.30;1.02;;;;;;;;;;6101034;23;20017;-81
2022/05/26 13:38:35;;;;;;;1.15;0.52;;;;;;;;;;6120735;23;20012;-82
2022/05/26 13:41:02;;;;;;;5.68;0.90;;;;;;;;;;6125344;23;20006;-78
2022/05/26 13:43:30;;;;;;;4.15;0.80;;;;;;;;;;6125397;23;20013;-76
2022/05/26 13:45:56;;;;;;;4.70;0.60;;;;;;;;;;6125481;23;20017;-77
2022/05/26 13:48:28;;;;;;;1.60;0.70;;;;;;;;;;6101261;23;20001;-80
2022/05/26 13:50:57;;;;;;;4.23;0.90;;;;;;;;;;6101940;23;20423;-86
2022/05/26 13:53:25;;;;;;;2.55;0.75;;;;;;;;;;6101434;23;20229;-79
2022/05/26 13:55:53;;;;;;;5.85;0.98;;;;;;;;;;6126897;23;20033;-84
2022/05/26 13:58:20;;;;;;;7.82;3.60;;;;;;;;;;6101142;23;20435;-86
2022/05/26 14:00:56;;;;;;;4.75;0.80;;;;;;;;;;6101256;23;20006;-83
2022/05/26 14:03:25;;;;;;;4.60;0.80;;;;;;;;;;6100886;23;20006;-81
2022/05/26 14:06:11;;;;;;;2.70;0.70;;;;;;;;;;6126993;23;20005;-83
2022/05/26 14:08:48;;;;;;;3.17;0.60;;;;;;;;;;6101101;23;20017;-86
2022/05/26 14:11:32;;;;;;;5.90;0.80;;;;;;;;;;6126554;23;20450;-90
2022/05/26 14:14:18;;;;;;;38.38;2.50;;;;;;;;;;6100406;23;20100;-78
2022/05/26 14:16:48;;;;;;;3.15;0.80;;;;;;;;;;6126350;23;20081;-78
2022/05/26 14:19:17;;;;;;;2.35;0.65;;;;;;;;;;6100046;23;20018;-78
2022/05/26 14:21:48;;;;;;;5.78;0.55;;;;;;;;;;6100670;23;20006;-78
2022/05/26 14:24:18;;;;;;;4.32;0.50;;;;;;;;;;6100805;23;20008;-80
2022/05/26 14:26:45;;;;;;;4.63;0.80;;;;;;;;;;6100736;23;20041;-79
2022/05/26 14:29:17;;;;;;;1.52;0.50;;;;;;;;;;6100654;23;20006;-80
2022/05/26 14:32:16;;;;;;;1.40;0.73;;;;;;;;;;6100403;23;20069;-81
2022/05/26 14:34:44;;;;;;;3.78;0.82;;;;;;;;;;6037931;23;20013;-78
2022/05/26 14:37:11;;;;;;;4.32;0.70;;;;;;;;;;6100469;23;20069;-84
2022/05/26 14:39:37;;;;;;;4.97;0.75;;;;;;;;;;6100395;23;20002;-82
2022/05/26 14:42:05;;;;;;;2.20;0.70;;;;;;;;;;6100519;23;20006;-82
2022/05/26 14:44:31;;;;;;;1.75;0.70;;;;;;;;;;6100720;23;20092;-82
2022/05/26 14:46:58;;;;;;;4.00;0.50;;;;;;;;;;6101933;23;20006;-86
2022/05/26 14:49:24;;;;;;;3.05;0.60;;;;;;;;;;6109378;23;20010;-87
2022/05/26 14:51:50;;;;;;;2.63;0.50;;;;;;;;;;6101053;23;20010;-85
2022/05/26 14:57:03;;;;;;;4.75;0.60;;;;;;;;;;6127479;23;20024;-85
2022/05/26 14:59:30;;;;;;;6.20;0.70;;;;;;;;;;6101158;23;20013;-85
2022/05/26 15:01:56;;;;;;;2.17;1.15;;;;;;;;;;6101091;23;20092;-87
2022/05/26 15:04:23;;;;;;;2.90;0.80;;;;;;;;;;6127317;23;20022;-87
2022/05/26 15:06:49;;;;;;;4.13;0.68;;;;;;;;;;6126884;23;20010;-86
2022/05/26 15:09:23;;;;;;;3.15;0.50;;;;;;;;;;6100774;23;20006;-85
2022/05/26 15:11:51;;;;;;;2.00;0.65;;;;;;;;;;6100987;23;20068;-84
2022/05/26 15:14:17;;;;;;;2.72;1.00;;;;;;;;;;6126870;23;20009;-84
2022/05/26 15:16:45;;;;;;;3.58;0.70;;;;;;;;;;6101024;23;20018;-86
2022/05/26 15:19:14;;;;;;;2.92;0.60;;;;;;;;;;6101023;23;20009;-91
2022/05/26 15:21:40;;;;;;;5.07;0.70;;;;;;;;;;6101599;23;20014;-86
2022/05/26 15:24:06;;;;;;;2.80;0.70;;;;;;;;;;6129367;23;20002;-87
2022/05/26 15:26:32;;;;;;;3.15;0.57;;;;;;;;;;6103256;23;20017;-85
2022/05/26 15:28:59;;;;;;;1.92;0.57;;;;;;;;;;6103200;23;20388;-88
2022/05/26 15:31:25;;;;;;;5.78;0.70;;;;;;;;;;6102851;23;20084;-90
2022/05/26 15:33:51;;;;;;;2.53;0.60;;;;;;;;;;6129273;23;20009;-86
2022/05/26 15:36:22;;;;;;;2.67;0.63;;;;;;;;;;6103186;23;20014;-88
2022/05/26 15:38:50;;;;;;;3.15;0.60;;;;;;;;;;6103191;23;20002;-88
2022/05/26 15:41:17;;;;;;;4.18;0.57;;;;;;;;;;6102991;23;20454;-86